Time;durP1;ratioP1;P1;durP2;ratioP2;P2;SDS_P1;SDS_P2;PMS_P1;PMS_P2;Temp;Humidity;BMP_temperature;BMP_pressure;BME280_temperature;BME280_humidity;BME280_pressure;Samples;Min_cycle;Max_cycle;Signal;HPM_P1;HPM_P2
2022/09/26 00:00:18;;;;;;;;;;;23.10;99.90;;;;;;5152395;27;20366;-73
2022/09/26 00:02:44;;;;;;;;;;;23.10;99.90;;;;;;5151077;27;19918;-74
2022/09/26 00:05:10;;;;;;;;;;;23.10;99.90;;;;;;5150899;27;19907;-74
2022/09/26 00:07:36;;;;;;;;;;;23.10;99.90;;;;;;5152513;27;20366;-74
2022/09/26 00:10:02;;;;;;;;;;;23.10;99.90;;;;;;5152222;27;19990;-74
2022/09/26 00:12:28;;;;;;;;;;;23.10;99.90;;;;;;5151833;27;19915;-74
2022/09/26 00:14:53;;;;;;;;;;;23.10;99.90;;;;;;5150826;27;19903;-73
2022/09/26 00:17:19;;;;;;;;;;;23.10;99.90;;;;;;5151141;27;19903;-74
2022/09/26 00:19:45;;;;;;;;;;;23.00;99.90;;;;;;5152251;27;19954;-74
2022/09/26 00:22:11;;;;;;;;;;;23.10;99.90;;;;;;5151656;27;19911;-74
2022/09/26 00:24:37;;;;;;;;;;;23.10;99.90;;;;;;5151826;27;20014;-75
2022/09/26 00:27:02;;;;;;;;;;;23.10;99.90;;;;;;5152002;27;19903;-74
2022/09/26 00:29:28;;;;;;;;;;;23.10;99.90;;;;;;5151745;27;19947;-74
2022/09/26 00:31:54;;;;;;;;;;;23.10;99.90;;;;;;5151832;27;19910;-73
2022/09/26 00:34:20;;;;;;;;;;;23.10;99.90;;;;;;5151637;27;19977;-74
2022/09/26 00:36:46;;;;;;;;;;;23.10;99.90;;;;;;5152054;27;19914;-74
2022/09/26 00:39:13;;;;;;;;;;;23.10;99.90;;;;;;5151718;27;19922;-74
2022/09/26 00:41:39;;;;;;;;;;;23.10;99.90;;;;;;5151813;27;20307;-74
2022/09/26 00:44:23;;;;;;;;;;;23.10;99.90;;;;;;5153408;27;19903;-73
2022/09/26 00:46:49;;;;;;;;;;;23.10;99.90;;;;;;5155723;27;19933;-73
2022/09/26 00:49:24;;;;;;;;;;;23.10;99.90;;;;;;5155715;27;19922;-73
2022/09/26 00:52:05;;;;;;;;;;;23.10;99.90;;;;;;5155641;27;20354;-73
2022/09/26 00:54:34;;;;;;;;;;;23.10;99.90;;;;;;5155403;27;19959;-73
2022/09/26 00:57:03;;;;;;;;;;;23.10;99.90;;;;;;5153909;27;19903;-73
2022/09/26 00:59:34;;;;;;;;;;;23.10;99.90;;;;;;5155461;27;19997;-73
2022/09/26 01:02:00;;;;;;;;;;;23.10;99.90;;;;;;5155092;27;19915;-73
2022/09/26 01:04:27;;;;;;;;;;;23.10;99.90;;;;;;5155440;27;19907;-73
2022/09/26 01:06:57;;;;;;;;;;;23.10;99.90;;;;;;5155159;27;19910;-73
2022/09/26 01:09:23;;;;;;;;;;;23.10;99.90;;;;;;5155248;27;19903;-74
2022/09/26 01:11:49;;;;;;;;;;;23.10;99.90;;;;;;5154993;27;19922;-73
2022/09/26 01:14:14;;;;;;;;;;;23.10;99.90;;;;;;5153969;27;19903;-73
2022/09/26 01:16:43;;;;;;;;;;;23.10;99.90;;;;;;5155719;27;19978;-73
2022/09/26 01:19:32;;;;;;;;;;;23.10;99.90;;;;;;5154943;27;20057;-73
2022/09/26 01:22:14;;;;;;;;;;;23.20;99.90;;;;;;5144863;27;19911;-73
2022/09/26 01:25:06;;;;;;;;;;;23.20;99.90;;;;;;5153461;27;20330;-73
2022/09/26 01:27:34;;;;;;;;;;;23.20;99.90;;;;;;5138270;27;20330;-74
2022/09/26 01:30:14;;;;;;;;;;;23.20;99.90;;;;;;5155094;27;20330;-73
2022/09/26 01:32:47;;;;;;;;;;;23.20;99.90;;;;;;5154883;27;19946;-74
2022/09/26 01:35:31;;;;;;;;;;;23.30;99.90;;;;;;5155133;27;20235;-74
2022/09/26 01:38:06;;;;;;;;;;;23.30;99.90;;;;;;5154846;27;19903;-73
2022/09/26 01:40:34;;;;;;;;;;;23.30;99.90;;;;;;5153706;27;19903;-74
2022/09/26 01:43:12;;;;;;;;;;;23.30;99.90;;;;;;5154737;27;19922;-73
2022/09/26 01:45:50;;;;;;;;;;;23.40;99.90;;;;;;5154703;27;19903;-73
2022/09/26 01:48:26;;;;;;;;;;;23.40;99.90;;;;;;5154758;27;19907;-74
2022/09/26 01:50:59;;;;;;;;;;;23.40;99.90;;;;;;5154828;27;20362;-73
2022/09/26 01:53:32;;;;;;;;;;;23.40;99.90;;;;;;5154394;27;19980;-73
2022/09/26 01:56:11;;;;;;;;;;;23.40;99.90;;;;;;5154312;27;19903;-74
2022/09/26 01:58:55;;;;;;;;;;;23.40;99.90;;;;;;5153068;27;19990;-74
2022/09/26 02:01:22;;;;;;;;;;;23.40;99.90;;;;;;5154060;27;19969;-73
2022/09/26 02:03:50;;;;;;;;;;;23.40;99.90;;;;;;5154213;27;19907;-73
2022/09/26 02:06:19;;;;;;;;;;;23.30;99.90;;;;;;5154626;27;19903;-74
2022/09/26 02:08:51;;;;;;;;;;;23.40;99.90;;;;;;5154114;27;19903;-73
2022/09/26 02:11:19;;;;;;;;;;;23.30;99.90;;;;;;5153949;27;19913;-74
2022/09/26 02:13:48;;;;;;;;;;;23.30;99.90;;;;;;5154151;27;19907;-74
2022/09/26 02:16:18;;;;;;;;;;;23.30;99.90;;;;;;5153945;27;19903;-74
2022/09/26 02:18:49;;;;;;;;;;;23.40;99.90;;;;;;5154142;27;19903;-74
2022/09/26 02:21:16;;;;;;;;;;;23.40;99.90;;;;;;5154262;27;20014;-74
2022/09/26 02:23:42;;;;;;;;;;;23.40;99.90;;;;;;5154207;27;19910;-74
2022/09/26 02:26:08;;;;;;;;;;;23.40;99.90;;;;;;5153749;27;19903;-74
2022/09/26 02:28:34;;;;;;;;;;;23.40;99.90;;;;;;5154103;27;19955;-74
2022/09/26 02:31:01;;;;;;;;;;;23.40;99.90;;;;;;5153837;27;19959;-74
2022/09/26 02:33:27;;;;;;;;;;;23.40;99.90;;;;;;5153983;27;19954;-74
2022/09/26 02:35:54;;;;;;;;;;;23.40;99.90;;;;;;5151428;27;19903;-74
2022/09/26 02:38:21;;;;;;;;;;;23.50;99.90;;;;;;5152920;27;19903;-74
2022/09/26 02:40:53;;;;;;;;;;;23.50;99.90;;;;;;5153169;27;19975;-75
2022/09/26 02:43:21;;;;;;;;;;;23.40;99.90;;;;;;5152905;27;20272;-74
2022/09/26 02:46:02;;;;;;;;;;;23.50;99.90;;;;;;5152964;27;19906;-74
2022/09/26 02:48:37;;;;;;;;;;;23.40;99.90;;;;;;5152846;27;19918;-74
2022/09/26 02:51:12;;;;;;;;;;;23.50;99.90;;;;;;5152625;27;20296;-73
2022/09/26 02:53:46;;;;;;;;;;;23.50;99.90;;;;;;5153634;27;19927;-73
2022/09/26 02:56:31;;;;;;;;;;;23.50;99.90;;;;;;5154005;27;19949;-74
2022/09/26 02:59:14;;;;;;;;;;;23.40;99.90;;;;;;5154657;27;19976;-73
2022/09/26 03:01:47;;;;;;;;;;;23.40;99.90;;;;;;5152920;27;19907;-74
2022/09/26 03:04:22;;;;;;;;;;;23.40;99.90;;;;;;5154765;27;19994;-75
2022/09/26 03:06:50;;;;;;;;;;;23.50;99.90;;;;;;5153470;27;20258;-74
2022/09/26 03:09:17;;;;;;;;;;;23.50;99.90;;;;;;5154605;27;19926;-74
2022/09/26 03:11:43;;;;;;;;;;;23.50;99.90;;;;;;5154161;27;19914;-74
2022/09/26 03:14:11;;;;;;;;;;;23.50;99.90;;;;;;5154737;27;19914;-74
2022/09/26 03:16:38;;;;;;;;;;;23.50;99.90;;;;;;5154494;27;19994;-74
2022/09/26 03:19:07;;;;;;;;;;;23.50;99.90;;;;;;5154681;27;19955;-75
2022/09/26 03:21:33;;;;;;;;;;;23.50;99.90;;;;;;5154077;27;19907;-75
2022/09/26 03:23:59;;;;;;;;;;;23.50;99.90;;;;;;5155122;27;19945;-75
2022/09/26 03:26:26;;;;;;;;;;;23.50;99.90;;;;;;5155618;27;20200;-75
2022/09/26 03:28:55;;;;;;;;;;;23.40;99.90;;;;;;5154641;27;19910;-75
2022/09/26 03:31:21;;;;;;;;;;;23.50;99.90;;;;;;5154963;27;19910;-74
2022/09/26 03:33:47;;;;;;;;;;;23.50;99.90;;;;;;5154797;27;19907;-74
2022/09/26 03:36:13;;;;;;;;;;;23.50;99.90;;;;;;5155055;27;20013;-74
2022/09/26 03:38:39;;;;;;;;;;;23.50;99.90;;;;;;5154729;27;19912;-74
2022/09/26 03:41:08;;;;;;;;;;;23.50;99.90;;;;;;5154857;27;20282;-74
2022/09/26 03:43:34;;;;;;;;;;;23.50;99.90;;;;;;5154825;27;19906;-74
2022/09/26 03:46:03;;;;;;;;;;;23.50;99.90;;;;;;5154771;27;19944;-74
2022/09/26 03:48:29;;;;;;;;;;;23.50;99.90;;;;;;5153345;27;20318;-73
2022/09/26 03:51:00;;;;;;;;;;;23.60;99.90;;;;;;5154735;27;19905;-74
2022/09/26 03:53:26;;;;;;;;;;;23.50;99.90;;;;;;5155037;27;20398;-74
2022/09/26 03:55:52;;;;;;;;;;;23.50;99.90;;;;;;5154888;27;20334;-74
2022/09/26 03:58:17;;;;;;;;;;;23.40;99.90;;;;;;5155051;27;19910;-74
2022/09/26 04:00:43;;;;;;;;;;;23.40;99.90;;;;;;5154415;27;19995;-75
2022/09/26 04:03:09;;;;;;;;;;;23.50;99.90;;;;;;5154484;27;19918;-74
2022/09/26 04:05:35;;;;;;;;;;;23.50;99.90;;;;;;5154405;27;19903;-74
2022/09/26 04:08:01;;;;;;;;;;;23.40;99.90;;;;;;5154818;27;19988;-75
2022/09/26 04:10:27;;;;;;;;;;;23.40;99.90;;;;;;5154182;27;19907;-74
2022/09/26 04:12:53;;;;;;;;;;;23.40;99.90;;;;;;5154223;27;19922;-75
2022/09/26 04:15:19;;;;;;;;;;;23.40;99.90;;;;;;5154689;27;19909;-74
2022/09/26 04:17:45;;;;;;;;;;;23.40;99.90;;;;;;5155739;27;19906;-75
2022/09/26 04:20:11;;;;;;;;;;;23.40;99.90;;;;;;5158945;27;19907;-74
2022/09/26 04:22:36;;;;;;;;;;;23.40;99.90;;;;;;5159275;27;19914;-74
2022/09/26 04:25:02;;;;;;;;;;;23.40;99.90;;;;;;5157724;27;19910;-74
2022/09/26 04:27:28;;;;;;;;;;;23.40;99.90;;;;;;5158851;27;19911;-74
2022/09/26 04:29:56;;;;;;;;;;;23.50;99.90;;;;;;5158775;27;20001;-74
2022/09/26 04:32:22;;;;;;;;;;;23.40;99.90;;;;;;5159027;27;20298;-74
2022/09/26 04:34:48;;;;;;;;;;;23.40;99.90;;;;;;5158986;27;19925;-74
2022/09/26 04:37:14;;;;;;;;;;;23.40;99.90;;;;;;5158822;27;20352;-74
2022/09/26 04:39:40;;;;;;;;;;;23.40;99.90;;;;;;5158840;27;20365;-75
2022/09/26 04:42:06;;;;;;;;;;;23.40;99.90;;;;;;5158752;27;19953;-74
2022/09/26 04:44:32;;;;;;;;;;;23.40;99.90;;;;;;5157120;27;20371;-74
2022/09/26 04:46:58;;;;;;;;;;;23.30;99.90;;;;;;5158463;27;19909;-74
2022/09/26 04:49:24;;;;;;;;;;;23.40;99.90;;;;;;5158843;27;20274;-74
2022/09/26 04:51:50;;;;;;;;;;;23.40;99.90;;;;;;5156971;27;20330;-74
2022/09/26 04:54:16;;;;;;;;;;;23.50;99.90;;;;;;5158249;27;19949;-74
2022/09/26 04:56:42;;;;;;;;;;;23.50;99.90;;;;;;5158107;27;19903;-75
2022/09/26 04:59:08;;;;;;;;;;;23.50;99.90;;;;;;5158147;27;19925;-74
2022/09/26 05:01:34;;;;;;;;;;;23.40;99.90;;;;;;5157993;27;20366;-74
2022/09/26 05:03:59;;;;;;;;;;;23.50;99.90;;;;;;5157989;27;19903;-73
2022/09/26 05:06:25;;;;;;;;;;;23.50;99.90;;;;;;5157756;27;20286;-74
2022/09/26 05:08:51;;;;;;;;;;;23.50;99.90;;;;;;5157317;27;20282;-74
2022/09/26 05:11:17;;;;;;;;;;;23.50;99.90;;;;;;5155755;27;20293;-73
2022/09/26 05:13:43;;;;;;;;;;;23.50;99.90;;;;;;5157529;27;19934;-73
2022/09/26 05:16:10;;;;;;;;;;;23.50;99.90;;;;;;5157145;27;19925;-73
2022/09/26 05:18:37;;;;;;;;;;;23.50;99.90;;;;;;5158082;27;19938;-74
2022/09/26 05:21:05;;;;;;;;;;;23.60;99.90;;;;;;5157578;27;19909;-73
2022/09/26 05:26:22;;;;;;;;;;;23.50;99.90;;;;;;5157955;27;20377;-74
2022/09/26 05:28:48;;;;;;;;;;;23.50;99.90;;;;;;5156930;27;19963;-74
2022/09/26 05:31:14;;;;;;;;;;;23.60;99.90;;;;;;5156980;27;20283;-73
2022/09/26 05:33:40;;;;;;;;;;;23.60;99.90;;;;;;5155152;27;19925;-73
2022/09/26 05:36:07;;;;;;;;;;;23.60;99.90;;;;;;5156069;27;20373;-73
2022/09/26 05:38:33;;;;;;;;;;;23.70;99.90;;;;;;5156693;27;19911;-74
2022/09/26 05:40:59;;;;;;;;;;;23.70;99.90;;;;;;5156284;27;19910;-74
2022/09/26 05:43:26;;;;;;;;;;;23.70;99.90;;;;;;5155981;27;19907;-73
2022/09/26 05:45:58;;;;;;;;;;;23.70;99.90;;;;;;5156795;27;19921;-73
2022/09/26 05:48:25;;;;;;;;;;;23.70;99.90;;;;;;5156106;27;19903;-74
2022/09/26 05:50:51;;;;;;;;;;;23.80;99.90;;;;;;5156177;27;20331;-74
2022/09/26 05:53:18;;;;;;;;;;;23.80;99.90;;;;;;5155914;27;19914;-74
2022/09/26 05:55:47;;;;;;;;;;;23.80;99.90;;;;;;5154354;27;19903;-74
2022/09/26 05:58:33;;;;;;;;;;;23.80;99.90;;;;;;5155948;27;19903;-75
2022/09/26 06:01:06;;;;;;;;;;;23.80;99.90;;;;;;5155555;27;19907;-74
2022/09/26 06:03:35;;;;;;;;;;;23.80;99.90;;;;;;5155258;27;20290;-74
2022/09/26 06:06:26;;;;;;;;;;;23.80;99.90;;;;;;5155789;27;19953;-74
2022/09/26 06:08:51;;;;;;;;;;;23.90;99.90;;;;;;5154037;27;19907;-75
2022/09/26 06:11:26;;;;;;;;;;;23.90;99.90;;;;;;5153687;27;20002;-75
2022/09/26 06:13:52;;;;;;;;;;;23.90;99.90;;;;;;5155425;27;19964;-75
2022/09/26 06:16:19;;;;;;;;;;;23.90;99.90;;;;;;5156107;27;19903;-74
2022/09/26 06:18:45;;;;;;;;;;;23.90;99.90;;;;;;5156510;27;19903;-75
2022/09/26 06:21:12;;;;;;;;;;;24.00;99.90;;;;;;5155944;27;19907;-74
2022/09/26 06:23:38;;;;;;;;;;;24.00;99.90;;;;;;5154452;27;19994;-75
2022/09/26 06:26:08;;;;;;;;;;;24.00;99.90;;;;;;5155823;27;20003;-74
2022/09/26 06:28:34;;;;;;;;;;;24.00;99.90;;;;;;5154405;27;19956;-74
2022/09/26 06:31:07;;;;;;;;;;;24.00;99.90;;;;;;5156004;27;19911;-74
2022/09/26 06:33:33;;;;;;;;;;;24.00;99.90;;;;;;5155988;27;19909;-74
2022/09/26 06:36:00;;;;;;;;;;;24.00;99.90;;;;;;5156078;27;19994;-74
2022/09/26 06:38:26;;;;;;;;;;;24.00;99.90;;;;;;5155640;27;19997;-74
2022/09/26 06:40:53;;;;;;;;;;;24.00;99.90;;;;;;5155378;27;20399;-74
2022/09/26 06:43:19;;;;;;;;;;;24.00;99.90;;;;;;5155213;27;19911;-74
2022/09/26 06:45:47;;;;;;;;;;;24.00;99.90;;;;;;5155549;27;19955;-74
2022/09/26 06:48:14;;;;;;;;;;;24.00;99.90;;;;;;5154122;27;19903;-74
2022/09/26 06:50:39;;;;;;;;;;;24.10;99.90;;;;;;5153945;27;19909;-74
2022/09/26 06:53:05;;;;;;;;;;;24.10;99.90;;;;;;5155102;27;19932;-76
2022/09/26 06:55:31;;;;;;;;;;;24.10;99.90;;;;;;5155062;27;19949;-74
2022/09/26 06:57:57;;;;;;;;;;;24.10;99.90;;;;;;5155866;27;19981;-74
2022/09/26 07:00:24;;;;;;;;;;;24.00;99.90;;;;;;5153905;27;19903;-74
2022/09/26 07:02:51;;;;;;;;;;;24.10;99.90;;;;;;5155048;27;19931;-74
2022/09/26 07:05:17;;;;;;;;;;;24.00;99.90;;;;;;5155377;27;19914;-74
2022/09/26 07:07:44;;;;;;;;;;;24.10;99.90;;;;;;5155004;27;19903;-73
2022/09/26 07:10:10;;;;;;;;;;;24.10;99.90;;;;;;5154996;27;19903;-73
2022/09/26 07:12:39;;;;;;;;;;;24.10;99.90;;;;;;5154733;27;19919;-73
2022/09/26 07:15:05;;;;;;;;;;;24.10;99.90;;;;;;5155034;27;19962;-74
2022/09/26 07:17:31;;;;;;;;;;;24.20;99.90;;;;;;5155547;27;19953;-74
2022/09/26 07:19:56;;;;;;;;;;;24.20;99.90;;;;;;5155270;27;19938;-73
2022/09/26 07:22:22;;;;;;;;;;;24.20;99.90;;;;;;5154920;27;19911;-75
2022/09/26 07:24:49;;;;;;;;;;;24.30;99.90;;;;;;5155302;27;19948;-75
2022/09/26 07:27:16;;;;;;;;;;;24.40;99.90;;;;;;5155096;27;20397;-74
2022/09/26 07:29:44;;;;;;;;;;;24.40;99.90;;;;;;5155021;27;20002;-75
2022/09/26 07:32:10;;;;;;;;;;;24.40;99.90;;;;;;5154897;27;19954;-75
2022/09/26 07:34:37;;;;;;;;;;;24.30;99.90;;;;;;5155268;27;19945;-74
2022/09/26 07:37:03;;;;;;;;;;;24.30;99.90;;;;;;5154659;27;20286;-74
2022/09/26 07:39:28;;;;;;;;;;;24.20;99.90;;;;;;5154955;27;19903;-74
2022/09/26 07:41:54;;;;;;;;;;;24.30;99.90;;;;;;5154702;27;19958;-74
2022/09/26 07:44:20;;;;;;;;;;;24.20;99.90;;;;;;5153549;27;19903;-73
2022/09/26 07:52:16;;;;;;;;;;;24.00;99.90;;;;;;5153261;27;20438;-74
2022/09/26 07:54:42;;;;;;;;;;;23.70;99.90;;;;;;5153421;27;19926;-75
2022/09/26 07:57:07;;;;;;;;;;;23.20;99.90;;;;;;5153526;27;20303;-74
2022/09/26 07:59:34;;;;;;;;;;;22.80;99.90;;;;;;5151504;27;19903;-74
2022/09/26 08:02:03;;;;;;;;;;;22.50;99.90;;;;;;5151575;27;20335;-74
2022/09/26 08:04:29;;;;;;;;;;;22.30;99.90;;;;;;5153333;27;20350;-74
2022/09/26 08:06:55;;;;;;;;;;;22.00;99.90;;;;;;5153252;27;19910;-74
2022/09/26 08:09:21;;;;;;;;;;;21.70;99.90;;;;;;5153688;27;20411;-74
2022/09/26 08:11:47;;;;;;;;;;;21.70;99.90;;;;;;5153373;27;20432;-75
2022/09/26 08:14:15;;;;;;;;;;;21.80;99.90;;;;;;5153573;27;19919;-75
2022/09/26 08:16:40;;;;;;;;;;;21.80;99.90;;;;;;5153814;27;19929;-74
2022/09/26 08:19:07;;;;;;;;;;;21.80;99.90;;;;;;5153047;27;19903;-74
2022/09/26 08:21:33;;;;;;;;;;;21.70;99.90;;;;;;5154341;27;19907;-73
2022/09/26 08:23:59;;;;;;;;;;;21.70;99.90;;;;;;5154747;27;19990;-74
2022/09/26 08:26:25;;;;;;;;;;;21.70;99.90;;;;;;5154437;27;19903;-74
2022/09/26 08:28:52;;;;;;;;;;;21.70;99.90;;;;;;5154283;27;19903;-74
2022/09/26 08:31:18;;;;;;;;;;;21.80;99.90;;;;;;5152781;27;19959;-74
2022/09/26 08:33:44;;;;;;;;;;;21.90;99.90;;;;;;5154369;27;19907;-74
2022/09/26 08:36:11;;;;;;;;;;;21.70;99.90;;;;;;5154325;27;19952;-74
2022/09/26 08:38:37;;;;;;;;;;;21.60;99.90;;;;;;5154034;27;19903;-75
2022/09/26 08:41:12;;;;;;;;;;;21.60;99.90;;;;;;5154104;27;20042;-74
2022/09/26 08:43:41;;;;;;;;;;;21.60;99.90;;;;;;5154754;27;19934;-73
2022/09/26 08:48:49;;;;;;;;;;;22.00;99.90;;;;;;5154327;27;20484;-73
2022/09/26 08:51:30;;;;;;;;;;;22.10;99.90;;;;;;5154076;27;20377;-73
2022/09/26 08:54:03;;;;;;;;;;;22.00;99.90;;;;;;5153854;27;19934;-73
2022/09/26 08:56:31;;;;;;;;;;;22.10;99.90;;;;;;5153534;27;19910;-74
2022/09/26 08:58:59;;;;;;;;;;;22.20;99.90;;;;;;5152374;27;20280;-72
2022/09/26 09:01:27;;;;;;;;;;;22.40;99.90;;;;;;5152058;27;19956;-72
2022/09/26 09:04:11;;;;;;;;;;;22.50;99.90;;;;;;5153657;27;19913;-73
2022/09/26 09:06:37;;;;;;;;;;;22.60;99.90;;;;;;5157256;27;19986;-73
2022/09/26 09:09:04;;;;;;;;;;;22.70;99.90;;;;;;5157624;27;20014;-73
2022/09/26 09:11:30;;;;;;;;;;;22.80;99.90;;;;;;5157330;27;19934;-73
2022/09/26 09:13:55;;;;;;;;;;;22.90;99.90;;;;;;5157505;27;20363;-74
2022/09/26 09:16:38;;;;;;;;;;;23.00;99.90;;;;;;5157101;27;20036;-74
2022/09/26 09:19:19;;;;;;;;;;;23.10;99.90;;;;;;5157469;27;20239;-74
2022/09/26 09:22:03;;;;;;;;;;;23.20;99.90;;;;;;5157302;27;19907;-74
2022/09/26 09:24:41;;;;;;;;;;;23.40;99.90;;;;;;5157195;27;20393;-73
2022/09/26 09:27:36;;;;;;;;;;;23.40;99.90;;;;;;5157576;27;19907;-73
2022/09/26 09:30:22;;;;;;;;;;;23.50;99.90;;;;;;5113502;28;20271;-73
2022/09/26 09:32:48;;;;;;;;;;;23.50;99.90;;;;;;5113494;28;19926;-74
2022/09/26 09:35:15;;;;;;;;;;;23.50;99.90;;;;;;5113453;28;19904;-74
2022/09/26 09:37:49;;;;;;;;;;;23.50;99.90;;;;;;5113342;28;20014;-74
2022/09/26 09:40:23;;;;;;;;;;;23.40;99.90;;;;;;5112834;28;20297;-74
2022/09/26 09:42:55;;;;;;;;;;;23.30;99.90;;;;;;5113191;28;19918;-73
2022/09/26 09:45:41;;;;;;;;;;;23.30;99.90;;;;;;5112994;28;19990;-73
2022/09/26 09:48:09;;;;;;;;;;;23.30;99.90;;;;;;5102189;28;19904;-73
2022/09/26 09:50:47;;;;;;;;;;;23.30;99.90;;;;;;5112995;28;19930;-73
2022/09/26 09:53:19;;;;;;;;;;;23.30;99.90;;;;;;5112801;28;19903;-73
2022/09/26 09:56:23;;;;;;;;;;;23.30;99.90;;;;;;5112465;28;19952;-74
2022/09/26 09:58:54;;;;;;;;;;;23.30;99.90;;;;;;5051988;28;19940;-75
2022/09/26 10:01:39;;;;;;;;;;;23.30;99.90;;;;;;5051941;28;20000;-72
2022/09/26 10:04:31;;;;;;;;;;;23.40;99.90;;;;;;5051339;28;19979;-73
2022/09/26 10:06:58;;;;;;;;;;;23.40;99.90;;;;;;5080444;28;19970;-72
2022/09/26 10:09:26;;;;;;;;;;;23.50;99.90;;;;;;5091700;28;19908;-73
2022/09/26 10:11:53;;;;;;;;;;;23.50;99.90;;;;;;5074246;28;19916;-72
2022/09/26 10:14:39;;;;;;;;;;;23.50;99.90;;;;;;5091746;28;19953;-74
2022/09/26 10:17:10;;;;;;;;;;;23.40;99.90;;;;;;5073559;28;19904;-74
2022/09/26 10:19:37;;;;;;;;;;;23.30;99.90;;;;;;5090820;28;19999;-74
2022/09/26 10:22:08;;;;;;;;;;;23.40;99.90;;;;;;5091098;28;20057;-74
2022/09/26 10:24:39;;;;;;;;;;;23.30;99.90;;;;;;5091470;28;19966;-73
2022/09/26 10:27:17;;;;;;;;;;;23.20;99.90;;;;;;5091587;28;19908;-74
2022/09/26 10:29:44;;;;;;;;;;;23.20;99.90;;;;;;5128108;27;19998;-74
2022/09/26 10:32:10;;;;;;;;;;;23.20;99.90;;;;;;5155780;27;19903;-73
2022/09/26 10:34:38;;;;;;;;;;;23.20;99.90;;;;;;5155359;27;20334;-73
2022/09/26 10:37:23;;;;;;;;;;;23.10;99.90;;;;;;5155644;27;20304;-74
2022/09/26 10:42:40;;;;;;;;;;;23.20;99.90;;;;;;5154879;27;19973;-74
2022/09/26 10:45:14;;;;;;;;;;;23.10;99.90;;;;;;5154839;27;20001;-73
2022/09/26 10:47:44;;;;;;;;;;;23.20;99.90;;;;;;5155001;27;19903;-73
2022/09/26 10:50:13;;;;;;;;;;;23.20;99.90;;;;;;5154964;27;19915;-74
2022/09/26 10:52:41;;;;;;;;;;;23.20;99.90;;;;;;5154315;27;19964;-73
2022/09/26 10:55:08;;;;;;;;;;;23.30;99.90;;;;;;5153684;27;19907;-76
2022/09/26 10:57:44;;;;;;;;;;;23.30;99.90;;;;;;5153397;27;19926;-73
2022/09/26 11:00:17;;;;;;;;;;;23.40;99.90;;;;;;5154662;27;19956;-73
2022/09/26 11:02:45;;;;;;;;;;;23.50;99.90;;;;;;5153461;27;20421;-74
2022/09/26 11:08:02;;;;;;;;;;;23.80;99.90;;;;;;5154567;27;19948;-74
2022/09/26 11:10:33;;;;;;;;;;;24.00;99.90;;;;;;5154734;27;19907;-73
2022/09/26 11:13:14;;;;;;;;;;;24.10;99.90;;;;;;5154078;27;19971;-73
2022/09/26 11:15:50;;;;;;;;;;;24.20;99.90;;;;;;5152585;27;19940;-74
2022/09/26 11:18:43;;;;;;;;;;;24.30;99.90;;;;;;5154962;27;19903;-74
2022/09/26 11:21:29;;;;;;;;;;;24.50;99.90;;;;;;5138147;27;19903;-75
2022/09/26 11:24:14;;;;;;;;;;;24.60;99.90;;;;;;5155403;27;19911;-73
2022/09/26 11:26:59;;;;;;;;;;;24.70;99.90;;;;;;5154298;27;19906;-74
2022/09/26 11:29:38;;;;;;;;;;;24.70;99.90;;;;;;5154295;27;19903;-74
2022/09/26 11:32:04;;;;;;;;;;;24.70;99.90;;;;;;5154724;27;20370;-74
2022/09/26 11:34:32;;;;;;;;;;;24.70;99.90;;;;;;5155574;27;19903;-74
2022/09/26 11:36:59;;;;;;;;;;;24.70;99.90;;;;;;5154949;27;19946;-73
2022/09/26 11:39:39;;;;;;;;;;;24.70;99.90;;;;;;5155254;27;19961;-75
2022/09/26 11:42:08;;;;;;;;;;;24.70;99.90;;;;;;5154730;27;20426;-73
2022/09/26 11:44:37;;;;;;;;;;;24.60;99.90;;;;;;5154547;27;19907;-73
2022/09/26 11:47:02;;;;;;;;;;;24.80;99.90;;;;;;5153131;27;19909;-73
2022/09/26 11:49:40;;;;;;;;;;;24.90;99.90;;;;;;5154991;27;19998;-73
2022/09/26 11:52:19;;;;;;;;;;;25.20;99.90;;;;;;5154686;27;19902;-74
2022/09/26 11:54:51;;;;;;;;;;;25.40;99.90;;;;;;5154648;27;19954;-74
2022/09/26 11:57:33;;;;;;;;;;;25.60;99.90;;;;;;5154854;27;19909;-74
2022/09/26 12:00:31;;;;;;;;;;;25.60;99.90;;;;;;5154941;27;19941;-74
2022/09/26 12:03:06;;;;;;;;;;;25.60;99.90;;;;;;5119104;27;20002;-74
2022/09/26 12:05:51;;;;;;;;;;;25.60;99.90;;;;;;5155003;27;19947;-74
2022/09/26 12:08:35;;;;;;;;;;;25.60;99.90;;;;;;5154931;27;20357;-74
2022/09/26 12:11:11;;;;;;;;;;;25.60;99.90;;;;;;5155116;27;19934;-74
2022/09/26 12:13:37;;;;;;;;;;;25.60;99.90;;;;;;5154967;27;20362;-74
2022/09/26 12:16:21;;;;;;;;;;;25.60;99.90;;;;;;5155224;27;19910;-74
2022/09/26 12:18:53;;;;;;;;;;;25.60;99.90;;;;;;5155246;27;20058;-74
2022/09/26 12:21:31;;;;;;;;;;;25.60;99.90;;;;;;5155713;27;20270;-74
2022/09/26 12:24:04;;;;;;;;;;;25.60;99.90;;;;;;5154802;27;19986;-74
2022/09/26 12:26:50;;;;;;;;;;;25.60;99.90;;;;;;5155453;27;19940;-74
2022/09/26 12:29:18;;;;;;;;;;;25.70;99.90;;;;;;5155171;27;19910;-75
2022/09/26 12:31:58;;;;;;;;;;;25.80;99.90;;;;;;5153261;27;20342;-75
2022/09/26 12:34:45;;;;;;;;;;;25.90;99.90;;;;;;5155135;27;19910;-75
2022/09/26 12:37:17;;;;;;;;;;;26.00;99.90;;;;;;5155288;27;20342;-74
2022/09/26 12:39:58;;;;;;;;;;;26.10;99.90;;;;;;5157784;27;20255;-74
2022/09/26 12:42:33;;;;;;;;;;;26.00;99.90;;;;;;5159252;27;20002;-74
2022/09/26 12:45:08;;;;;;;;;;;26.10;99.90;;;;;;5159629;27;19964;-74
2022/09/26 12:47:34;;;;;;;;;;;26.20;99.90;;;;;;5156995;27;19903;-74
2022/09/26 12:50:19;;;;;;;;;;;26.10;99.90;;;;;;5158195;27;20401;-74
2022/09/26 12:53:08;;;;;;;;;;;26.00;99.90;;;;;;5156343;27;19903;-75
2022/09/26 12:55:41;;;;;;;;;;;26.00;99.90;;;;;;5156148;27;19998;-74
2022/09/26 12:58:08;;;;;;;;;;;25.90;99.90;;;;;;5156191;27;19902;-74
2022/09/26 13:00:39;;;;;;;;;;;25.90;99.90;;;;;;5157912;27;19907;-74
2022/09/26 13:03:24;;;;;;;;;;;26.00;99.90;;;;;;5157523;27;19911;-74
2022/09/26 13:05:52;;;;;;;;;;;26.20;99.90;;;;;;5157742;27;20207;-74
2022/09/26 13:08:27;;;;;;;;;;;26.50;99.90;;;;;;5157406;27;19914;-74
2022/09/26 13:11:03;;;;;;;;;;;26.80;99.90;;;;;;5155897;27;19903;-74
2022/09/26 13:13:47;;;;;;;;;;;26.80;99.90;;;;;;5158010;27;19959;-74
2022/09/26 13:16:25;;;;;;;;;;;26.70;99.90;;;;;;5156370;27;19908;-74
2022/09/26 13:18:59;;;;;;;;;;;26.40;99.90;;;;;;5156864;27;20365;-74
2022/09/26 13:21:51;;;;;;;;;;;26.30;99.90;;;;;;5156655;27;20363;-75
2022/09/26 13:24:23;;;;;;;;;;;26.10;99.90;;;;;;5155987;27;20005;-75
2022/09/26 13:26:54;;;;;;;;;;;26.10;99.90;;;;;;5156581;27;19907;-74
2022/09/26 13:29:20;;;;;;;;;;;26.00;99.90;;;;;;5158565;27;20355;-74
2022/09/26 13:31:54;;;;;;;;;;;26.00;99.90;;;;;;5156609;27;19903;-74
2022/09/26 13:34:31;;;;;;;;;;;26.00;99.90;;;;;;5158297;27;19903;-74
2022/09/26 13:36:58;;;;;;;;;;;26.10;99.90;;;;;;5157785;27;20326;-74
2022/09/26 13:39:24;;;;;;;;;;;25.50;99.90;;;;;;5157933;27;19903;-73
2022/09/26 13:42:12;;;;;;;;;;;25.00;99.90;;;;;;5156254;27;20215;-74
2022/09/26 13:44:47;;;;;;;;;;;24.70;99.90;;;;;;5151542;27;19997;-74
2022/09/26 13:47:20;;;;;;;;;;;24.40;99.90;;;;;;5156206;27;19903;-73
2022/09/26 13:50:17;;;;;;;;;;;24.20;99.90;;;;;;5157942;27;19902;-73
2022/09/26 13:52:46;;;;;;;;;;;24.10;99.90;;;;;;5157549;27;19903;-74
2022/09/26 13:55:14;;;;;;;;;;;24.20;99.90;;;;;;5156581;27;19903;-74
2022/09/26 13:58:05;;;;;;;;;;;24.40;99.90;;;;;;5156577;27;19917;-75
2022/09/26 14:00:37;;;;;;;;;;;24.40;99.90;;;;;;5156797;27;20001;-74
2022/09/26 14:03:09;;;;;;;;;;;24.30;99.90;;;;;;5155098;27;19911;-73
2022/09/26 14:05:41;;;;;;;;;;;24.40;99.90;;;;;;5156441;27;19910;-73
2022/09/26 14:11:23;;;;;;;;;;;24.60;99.90;;;;;;5156129;27;19971;-74
2022/09/26 14:14:08;;;;;;;;;;;24.80;99.90;;;;;;5156278;27;20370;-74
2022/09/26 14:16:35;;;;;;;;;;;24.90;99.90;;;;;;5154549;27;19906;-75
2022/09/26 14:19:08;;;;;;;;;;;25.00;99.90;;;;;;5156476;27;19997;-75
2022/09/26 14:21:37;;;;;;;;;;;25.20;99.90;;;;;;5156131;27;20270;-73
2022/09/26 14:24:22;;;;;;;;;;;25.50;99.90;;;;;;5156448;27;19911;-73
2022/09/26 14:27:07;;;;;;;;;;;25.60;99.90;;;;;;5156182;27;19951;-74
2022/09/26 14:29:45;;;;;;;;;;;25.80;99.90;;;;;;5156059;27;19903;-74
2022/09/26 14:32:11;;;;;;;;;;;25.80;99.90;;;;;;5156228;27;19903;-74
2022/09/26 14:34:40;;;;;;;;;;;25.70;99.90;;;;;;5155880;27;20274;-74
2022/09/26 14:37:38;;;;;;;;;;;25.70;99.90;;;;;;5156105;27;19903;-74
2022/09/26 14:40:04;;;;;;;;;;;25.90;99.90;;;;;;5112335;28;19903;-73
2022/09/26 14:42:33;;;;;;;;;;;25.90;99.90;;;;;;5112353;28;19911;-73
2022/09/26 14:45:04;;;;;;;;;;;26.00;99.90;;;;;;5112302;28;19946;-73
2022/09/26 14:47:39;;;;;;;;;;;26.10;99.90;;;;;;5111940;28;19907;-74
2022/09/26 14:50:11;;;;;;;;;;;26.00;99.90;;;;;;5112517;28;20002;-74
2022/09/26 14:52:37;;;;;;;;;;;26.10;99.90;;;;;;5111480;28;19903;-74
2022/09/26 14:55:04;;;;;;;;;;;26.20;99.90;;;;;;5111094;28;19998;-74
2022/09/26 14:57:32;;;;;;;;;;;26.40;99.90;;;;;;5110606;28;20340;-73